sensor_id;sensor_type;location;lat;lon;timestamp;temperature;humidity
5796;DHT22;2924;51.458;7.046;2022-12-07T00:01:17;4.00;99.90
5796;DHT22;2924;51.458;7.046;2022-12-07T00:03:44;4.10;99.90
5796;DHT22;2924;51.458;7.046;2022-12-07T00:06:11;4.10;99.90
5796;DHT22;2924;51.458;7.046;2022-12-07T00:08:38;4.00;99.90
5796;DHT22;2924;51.458;7.046;2022-12-07T00:11:08;4.10;99.90
5796;DHT22;2924;51.458;7.046;2022-12-07T00:13:35;4.10;99.90
5796;DHT22;2924;51.458;7.046;2022-12-07T00:16:09;4.20;99.90
5796;DHT22;2924;51.458;7.046;2022-12-07T00:18:36;4.10;99.90
5796;DHT22;2924;51.458;7.046;2022-12-07T00:21:13;4.10;99.90
5796;DHT22;2924;51.458;7.046;2022-12-07T00:23:40;4.20;99.90
5796;DHT22;2924;51.458;7.046;2022-12-07T00:26:11;4.20;99.90
5796;DHT22;2924;51.458;7.046;2022-12-07T00:28:37;4.20;99.90
5796;DHT22;2924;51.458;7.046;2022-12-07T00:31:05;4.20;99.90
5796;DHT22;2924;51.458;7.046;2022-12-07T00:33:32;4.20;99.90
5796;DHT22;2924;51.458;7.046;2022-12-07T00:35:59;4.20;99.90
5796;DHT22;2924;51.458;7.046;2022-12-07T00:38:29;4.20;99.90
5796;DHT22;2924;51.458;7.046;2022-12-07T00:41:00;4.20;99.90
5796;DHT22;2924;51.458;7.046;2022-12-07T00:43:26;4.20;99.90
5796;DHT22;2924;51.458;7.046;2022-12-07T00:45:52;4.20;99.90
5796;DHT22;2924;51.458;7.046;2022-12-07T00:48:18;4.30;99.90
5796;DHT22;2924;51.458;7.046;2022-12-07T00:50:43;4.30;99.90
5796;DHT22;2924;51.458;7.046;2022-12-07T00:53:09;4.30;99.90
5796;DHT22;2924;51.458;7.046;2022-12-07T00:55:35;4.30;99.90
5796;DHT22;2924;51.458;7.046;2022-12-07T00:58:02;4.30;99.90
5796;DHT22;2924;51.458;7.046;2022-12-07T01:00:27;4.30;99.90
5796;DHT22;2924;51.458;7.046;2022-12-07T01:02:53;4.30;99.90
5796;DHT22;2924;51.458;7.046;2022-12-07T01:05:19;4.30;99.90
5796;DHT22;2924;51.458;7.046;2022-12-07T01:07:45;4.30;99.90
5796;DHT22;2924;51.458;7.046;2022-12-07T01:10:12;4.30;99.90
5796;DHT22;2924;51.458;7.046;2022-12-07T01:12:38;4.40;99.90
5796;DHT22;2924;51.458;7.046;2022-12-07T01:15:04;4.40;99.90
5796;DHT22;2924;51.458;7.046;2022-12-07T01:17:30;4.40;99.90
5796;DHT22;2924;51.458;7.046;2022-12-07T01:19:55;4.40;99.90
5796;DHT22;2924;51.458;7.046;2022-12-07T01:22:21;4.40;99.90
5796;DHT22;2924;51.458;7.046;2022-12-07T01:24:47;4.40;99.90
5796;DHT22;2924;51.458;7.046;2022-12-07T01:27:13;4.40;99.90
5796;DHT22;2924;51.458;7.046;2022-12-07T01:29:39;4.30;99.90
5796;DHT22;2924;51.458;7.046;2022-12-07T01:32:05;4.40;99.90
5796;DHT22;2924;51.458;7.046;2022-12-07T01:34:30;4.40;99.90
5796;DHT22;2924;51.458;7.046;2022-12-07T01:36:56;4.30;99.90
5796;DHT22;2924;51.458;7.046;2022-12-07T01:39:23;4.40;99.90
5796;DHT22;2924;51.458;7.046;2022-12-07T01:41:49;4.40;99.90
5796;DHT22;2924;51.458;7.046;2022-12-07T01:46:47;4.40;99.90
5796;DHT22;2924;51.458;7.046;2022-12-07T01:54:27;4.40;99.90
5796;DHT22;2924;51.458;7.046;2022-12-07T01:56:54;4.40;99.90
5796;DHT22;2924;51.458;7.046;2022-12-07T01:59:23;4.40;99.90
5796;DHT22;2924;51.458;7.046;2022-12-07T02:01:51;4.30;99.90
5796;DHT22;2924;51.458;7.046;2022-12-07T02:04:18;4.30;99.90
5796;DHT22;2924;51.458;7.046;2022-12-07T02:06:44;4.20;99.90
5796;DHT22;2924;51.458;7.046;2022-12-07T02:09:11;4.20;99.90
5796;DHT22;2924;51.458;7.046;2022-12-07T02:11:37;4.20;99.90
5796;DHT22;2924;51.458;7.046;2022-12-07T02:14:03;4.20;99.90
5796;DHT22;2924;51.458;7.046;2022-12-07T02:19:43;4.10;99.90
5796;DHT22;2924;51.458;7.046;2022-12-07T02:25:08;4.20;99.90
5796;DHT22;2924;51.458;7.046;2022-12-07T02:27:46;4.20;99.90
5796;DHT22;2924;51.458;7.046;2022-12-07T02:30:20;4.20;99.90
5796;DHT22;2924;51.458;7.046;2022-12-07T02:35:20;4.00;99.90
5796;DHT22;2924;51.458;7.046;2022-12-07T02:38:14;4.10;99.90
5796;DHT22;2924;51.458;7.046;2022-12-07T02:43:37;4.00;99.90
5796;DHT22;2924;51.458;7.046;2022-12-07T02:46:09;4.00;99.90
5796;DHT22;2924;51.458;7.046;2022-12-07T02:48:37;4.00;99.90
5796;DHT22;2924;51.458;7.046;2022-12-07T02:51:03;4.00;99.90
5796;DHT22;2924;51.458;7.046;2022-12-07T02:53:31;4.00;99.90
5796;DHT22;2924;51.458;7.046;2022-12-07T02:55:59;4.00;99.90
5796;DHT22;2924;51.458;7.046;2022-12-07T02:58:32;3.90;99.90
5796;DHT22;2924;51.458;7.046;2022-12-07T03:01:08;3.90;99.90
5796;DHT22;2924;51.458;7.046;2022-12-07T03:03:37;3.90;99.90
5796;DHT22;2924;51.458;7.046;2022-12-07T03:06:22;3.80;99.90
5796;DHT22;2924;51.458;7.046;2022-12-07T03:09:14;3.80;99.90
5796;DHT22;2924;51.458;7.046;2022-12-07T03:11:54;3.80;99.90
5796;DHT22;2924;51.458;7.046;2022-12-07T03:14:32;3.80;99.90
5796;DHT22;2924;51.458;7.046;2022-12-07T03:17:01;3.70;99.90
5796;DHT22;2924;51.458;7.046;2022-12-07T03:19:31;3.60;99.90
5796;DHT22;2924;51.458;7.046;2022-12-07T03:22:01;3.50;99.90
5796;DHT22;2924;51.458;7.046;2022-12-07T03:24:33;3.50;99.90
5796;DHT22;2924;51.458;7.046;2022-12-07T03:27:09;3.40;99.90
5796;DHT22;2924;51.458;7.046;2022-12-07T03:32:38;3.20;99.90
5796;DHT22;2924;51.458;7.046;2022-12-07T03:35:14;3.10;99.90
5796;DHT22;2924;51.458;7.046;2022-12-07T03:42:42;2.90;99.90
5796;DHT22;2924;51.458;7.046;2022-12-07T03:45:08;3.00;99.90
5796;DHT22;2924;51.458;7.046;2022-12-07T03:53:00;3.20;99.90
5796;DHT22;2924;51.458;7.046;2022-12-07T03:55:37;3.20;99.90
5796;DHT22;2924;51.458;7.046;2022-12-07T03:58:09;3.30;99.90
5796;DHT22;2924;51.458;7.046;2022-12-07T04:00:36;3.30;99.90
5796;DHT22;2924;51.458;7.046;2022-12-07T04:03:01;3.30;99.90
5796;DHT22;2924;51.458;7.046;2022-12-07T04:05:27;3.40;99.90
5796;DHT22;2924;51.458;7.046;2022-12-07T04:07:53;3.40;99.90
5796;DHT22;2924;51.458;7.046;2022-12-07T04:10:19;3.30;99.90
5796;DHT22;2924;51.458;7.046;2022-12-07T04:12:45;3.40;99.90
5796;DHT22;2924;51.458;7.046;2022-12-07T04:15:11;3.30;99.90
5796;DHT22;2924;51.458;7.046;2022-12-07T04:17:36;3.30;99.90
5796;DHT22;2924;51.458;7.046;2022-12-07T04:20:03;3.20;99.90
5796;DHT22;2924;51.458;7.046;2022-12-07T04:22:29;3.20;99.90
5796;DHT22;2924;51.458;7.046;2022-12-07T04:24:55;3.20;99.90
5796;DHT22;2924;51.458;7.046;2022-12-07T04:27:20;3.10;99.90
5796;DHT22;2924;51.458;7.046;2022-12-07T04:29:46;3.20;99.90
5796;DHT22;2924;51.458;7.046;2022-12-07T04:32:12;3.20;99.90
5796;DHT22;2924;51.458;7.046;2022-12-07T04:34:37;3.20;99.90
5796;DHT22;2924;51.458;7.046;2022-12-07T04:37:03;3.10;99.90
5796;DHT22;2924;51.458;7.046;2022-12-07T04:39:30;3.20;99.90
5796;DHT22;2924;51.458;7.046;2022-12-07T04:41:57;3.20;99.90
5796;DHT22;2924;51.458;7.046;2022-12-07T04:44:23;3.20;99.90
5796;DHT22;2924;51.458;7.046;2022-12-07T04:46:50;3.20;99.90
5796;DHT22;2924;51.458;7.046;2022-12-07T04:49:16;3.20;99.90
5796;DHT22;2924;51.458;7.046;2022-12-07T04:51:43;3.20;99.90
5796;DHT22;2924;51.458;7.046;2022-12-07T04:54:08;3.10;99.90
5796;DHT22;2924;51.458;7.046;2022-12-07T04:56:35;3.10;99.90
5796;DHT22;2924;51.458;7.046;2022-12-07T04:59:02;3.10;99.90
5796;DHT22;2924;51.458;7.046;2022-12-07T05:01:27;3.10;99.90
5796;DHT22;2924;51.458;7.046;2022-12-07T05:03:53;3.00;99.90
5796;DHT22;2924;51.458;7.046;2022-12-07T05:06:19;2.90;99.90
5796;DHT22;2924;51.458;7.046;2022-12-07T05:08:45;2.90;99.90
5796;DHT22;2924;51.458;7.046;2022-12-07T05:11:11;2.80;99.90
5796;DHT22;2924;51.458;7.046;2022-12-07T05:13:56;2.90;99.90
5796;DHT22;2924;51.458;7.046;2022-12-07T05:16:22;2.90;99.90
5796;DHT22;2924;51.458;7.046;2022-12-07T05:18:48;3.00;99.90
5796;DHT22;2924;51.458;7.046;2022-12-07T05:21:13;3.00;99.90
5796;DHT22;2924;51.458;7.046;2022-12-07T05:23:39;3.00;99.90
5796;DHT22;2924;51.458;7.046;2022-12-07T05:26:05;2.90;99.90
5796;DHT22;2924;51.458;7.046;2022-12-07T05:28:30;2.90;99.90
5796;DHT22;2924;51.458;7.046;2022-12-07T05:30:56;2.90;99.90
5796;DHT22;2924;51.458;7.046;2022-12-07T05:33:21;2.90;99.90
5796;DHT22;2924;51.458;7.046;2022-12-07T05:35:47;2.90;99.90
5796;DHT22;2924;51.458;7.046;2022-12-07T05:38:13;2.90;99.90
5796;DHT22;2924;51.458;7.046;2022-12-07T05:40:38;2.90;99.90
5796;DHT22;2924;51.458;7.046;2022-12-07T05:43:04;2.90;99.90
5796;DHT22;2924;51.458;7.046;2022-12-07T05:45:29;2.90;99.90
5796;DHT22;2924;51.458;7.046;2022-12-07T05:47:55;3.00;99.90
5796;DHT22;2924;51.458;7.046;2022-12-07T05:50:21;3.00;99.90
5796;DHT22;2924;51.458;7.046;2022-12-07T05:52:46;2.90;99.90
5796;DHT22;2924;51.458;7.046;2022-12-07T05:55:12;3.00;99.90
5796;DHT22;2924;51.458;7.046;2022-12-07T05:57:38;2.90;99.90
5796;DHT22;2924;51.458;7.046;2022-12-07T06:00:05;3.00;99.90
5796;DHT22;2924;51.458;7.046;2022-12-07T06:02:31;3.00;99.90
5796;DHT22;2924;51.458;7.046;2022-12-07T06:04:56;3.00;99.90
5796;DHT22;2924;51.458;7.046;2022-12-07T06:07:22;3.00;99.90
5796;DHT22;2924;51.458;7.046;2022-12-07T06:09:48;3.00;99.90
5796;DHT22;2924;51.458;7.046;2022-12-07T06:12:15;3.00;99.90
5796;DHT22;2924;51.458;7.046;2022-12-07T06:14:59;3.00;99.90
5796;DHT22;2924;51.458;7.046;2022-12-07T06:17:25;3.00;99.90
5796;DHT22;2924;51.458;7.046;2022-12-07T06:19:51;3.00;99.90
5796;DHT22;2924;51.458;7.046;2022-12-07T06:22:17;3.00;99.90
5796;DHT22;2924;51.458;7.046;2022-12-07T06:24:43;2.90;99.90
5796;DHT22;2924;51.458;7.046;2022-12-07T06:27:09;2.80;99.90
5796;DHT22;2924;51.458;7.046;2022-12-07T06:29:35;2.90;99.90
5796;DHT22;2924;51.458;7.046;2022-12-07T06:32:00;2.90;99.90
5796;DHT22;2924;51.458;7.046;2022-12-07T06:34:27;2.90;99.90
5796;DHT22;2924;51.458;7.046;2022-12-07T06:36:53;2.90;99.90
5796;DHT22;2924;51.458;7.046;2022-12-07T06:39:25;2.90;99.90
5796;DHT22;2924;51.458;7.046;2022-12-07T06:41:51;3.00;99.90
5796;DHT22;2924;51.458;7.046;2022-12-07T06:44:18;3.00;99.90
5796;DHT22;2924;51.458;7.046;2022-12-07T06:46:43;2.90;99.90
5796;DHT22;2924;51.458;7.046;2022-12-07T06:49:09;2.90;99.90
5796;DHT22;2924;51.458;7.046;2022-12-07T06:51:35;2.90;99.90
5796;DHT22;2924;51.458;7.046;2022-12-07T06:54:03;2.90;99.90
5796;DHT22;2924;51.458;7.046;2022-12-07T06:56:29;2.90;99.90
5796;DHT22;2924;51.458;7.046;2022-12-07T06:58:54;2.90;99.90
5796;DHT22;2924;51.458;7.046;2022-12-07T07:01:20;2.90;99.90
5796;DHT22;2924;51.458;7.046;2022-12-07T07:03:46;2.90;99.90
5796;DHT22;2924;51.458;7.046;2022-12-07T07:06:13;2.80;99.90
5796;DHT22;2924;51.458;7.046;2022-12-07T07:08:39;2.70;99.90
5796;DHT22;2924;51.458;7.046;2022-12-07T07:11:07;2.70;99.90
5796;DHT22;2924;51.458;7.046;2022-12-07T07:13:33;2.60;99.90
5796;DHT22;2924;51.458;7.046;2022-12-07T07:15:59;2.60;99.90
5796;DHT22;2924;51.458;7.046;2022-12-07T07:18:25;2.60;99.90
5796;DHT22;2924;51.458;7.046;2022-12-07T07:20:51;2.60;99.90
5796;DHT22;2924;51.458;7.046;2022-12-07T07:23:18;2.50;99.90
5796;DHT22;2924;51.458;7.046;2022-12-07T07:25:44;2.50;99.90
5796;DHT22;2924;51.458;7.046;2022-12-07T07:28:10;2.50;99.90
5796;DHT22;2924;51.458;7.046;2022-12-07T07:30:36;2.60;99.90
5796;DHT22;2924;51.458;7.046;2022-12-07T07:33:03;2.50;99.90
5796;DHT22;2924;51.458;7.046;2022-12-07T07:35:30;2.50;99.90
5796;DHT22;2924;51.458;7.046;2022-12-07T07:37:56;2.60;99.90
5796;DHT22;2924;51.458;7.046;2022-12-07T07:40:22;2.60;99.90
5796;DHT22;2924;51.458;7.046;2022-12-07T07:42:52;2.70;99.90
5796;DHT22;2924;51.458;7.046;2022-12-07T07:45:19;2.80;99.90
5796;DHT22;2924;51.458;7.046;2022-12-07T07:47:45;2.80;99.90
5796;DHT22;2924;51.458;7.046;2022-12-07T07:50:10;2.90;99.90
5796;DHT22;2924;51.458;7.046;2022-12-07T07:52:36;2.90;99.90
5796;DHT22;2924;51.458;7.046;2022-12-07T07:55:02;3.00;99.90
5796;DHT22;2924;51.458;7.046;2022-12-07T07:57:28;3.00;99.90
5796;DHT22;2924;51.458;7.046;2022-12-07T07:59:53;3.10;99.90
5796;DHT22;2924;51.458;7.046;2022-12-07T08:02:22;3.10;99.90
5796;DHT22;2924;51.458;7.046;2022-12-07T08:04:47;3.10;99.90
5796;DHT22;2924;51.458;7.046;2022-12-07T08:07:14;3.20;99.90
5796;DHT22;2924;51.458;7.046;2022-12-07T08:09:39;3.20;99.90
5796;DHT22;2924;51.458;7.046;2022-12-07T08:12:05;3.20;99.90
5796;DHT22;2924;51.458;7.046;2022-12-07T08:14:31;3.20;99.90
5796;DHT22;2924;51.458;7.046;2022-12-07T08:16:57;3.30;99.90
5796;DHT22;2924;51.458;7.046;2022-12-07T08:19:23;3.30;99.90
5796;DHT22;2924;51.458;7.046;2022-12-07T08:21:49;3.30;99.90
5796;DHT22;2924;51.458;7.046;2022-12-07T08:24:14;3.40;99.90
5796;DHT22;2924;51.458;7.046;2022-12-07T08:26:41;3.40;99.90
5796;DHT22;2924;51.458;7.046;2022-12-07T08:29:06;3.50;99.90
5796;DHT22;2924;51.458;7.046;2022-12-07T08:31:32;3.50;99.90
5796;DHT22;2924;51.458;7.046;2022-12-07T08:33:58;3.60;99.90
5796;DHT22;2924;51.458;7.046;2022-12-07T08:36:23;3.70;99.90
5796;DHT22;2924;51.458;7.046;2022-12-07T08:38:50;3.80;99.90
5796;DHT22;2924;51.458;7.046;2022-12-07T08:41:16;3.80;99.90
5796;DHT22;2924;51.458;7.046;2022-12-07T08:43:42;3.80;99.90
5796;DHT22;2924;51.458;7.046;2022-12-07T08:46:29;3.80;99.90
5796;DHT22;2924;51.458;7.046;2022-12-07T08:49:19;3.90;99.90
5796;DHT22;2924;51.458;7.046;2022-12-07T08:51:46;3.90;99.90
5796;DHT22;2924;51.458;7.046;2022-12-07T08:54:15;3.90;99.90
5796;DHT22;2924;51.458;7.046;2022-12-07T08:56:41;3.80;99.90
5796;DHT22;2924;51.458;7.046;2022-12-07T08:59:07;3.80;99.90
5796;DHT22;2924;51.458;7.046;2022-12-07T09:01:33;3.80;99.90
5796;DHT22;2924;51.458;7.046;2022-12-07T09:03:59;3.80;99.90
5796;DHT22;2924;51.458;7.046;2022-12-07T09:06:25;3.80;99.90
5796;DHT22;2924;51.458;7.046;2022-12-07T09:08:55;3.80;99.90
5796;DHT22;2924;51.458;7.046;2022-12-07T09:11:22;3.80;99.90
5796;DHT22;2924;51.458;7.046;2022-12-07T09:13:47;3.90;99.90
5796;DHT22;2924;51.458;7.046;2022-12-07T09:16:13;3.90;99.90
5796;DHT22;2924;51.458;7.046;2022-12-07T09:18:39;4.00;99.90
5796;DHT22;2924;51.458;7.046;2022-12-07T09:21:05;4.10;99.90
5796;DHT22;2924;51.458;7.046;2022-12-07T09:23:30;4.20;99.90
5796;DHT22;2924;51.458;7.046;2022-12-07T09:26:02;4.20;99.90
5796;DHT22;2924;51.458;7.046;2022-12-07T09:28:28;4.30;99.90
5796;DHT22;2924;51.458;7.046;2022-12-07T09:30:55;4.40;99.90
5796;DHT22;2924;51.458;7.046;2022-12-07T09:33:20;4.60;99.90
5796;DHT22;2924;51.458;7.046;2022-12-07T09:35:47;4.80;99.90
5796;DHT22;2924;51.458;7.046;2022-12-07T09:38:13;5.00;99.90
5796;DHT22;2924;51.458;7.046;2022-12-07T09:40:40;5.10;99.90
5796;DHT22;2924;51.458;7.046;2022-12-07T09:43:12;5.30;99.90
5796;DHT22;2924;51.458;7.046;2022-12-07T09:45:39;5.30;99.90
5796;DHT22;2924;51.458;7.046;2022-12-07T09:48:05;5.40;99.90
5796;DHT22;2924;51.458;7.046;2022-12-07T09:50:31;5.40;99.90
5796;DHT22;2924;51.458;7.046;2022-12-07T09:53:08;5.40;99.90
5796;DHT22;2924;51.458;7.046;2022-12-07T09:55:36;5.40;99.90
5796;DHT22;2924;51.458;7.046;2022-12-07T09:58:03;5.60;99.90
5796;DHT22;2924;51.458;7.046;2022-12-07T10:00:29;5.80;99.90
5796;DHT22;2924;51.458;7.046;2022-12-07T10:02:56;6.00;99.90
5796;DHT22;2924;51.458;7.046;2022-12-07T10:07:55;6.40;99.90
5796;DHT22;2924;51.458;7.046;2022-12-07T10:10:30;6.70;99.90
5796;DHT22;2924;51.458;7.046;2022-12-07T10:12:57;7.20;99.90
5796;DHT22;2924;51.458;7.046;2022-12-07T10:15:36;7.60;99.90
5796;DHT22;2924;51.458;7.046;2022-12-07T10:18:27;7.90;99.90
5796;DHT22;2924;51.458;7.046;2022-12-07T10:23:36;8.00;99.90
5796;DHT22;2924;51.458;7.046;2022-12-07T10:26:38;8.00;99.90
5796;DHT22;2924;51.458;7.046;2022-12-07T10:34:37;8.00;99.90
5796;DHT22;2924;51.458;7.046;2022-12-07T10:37:18;8.10;99.90
5796;DHT22;2924;51.458;7.046;2022-12-07T10:39:51;8.20;99.90
5796;DHT22;2924;51.458;7.046;2022-12-07T10:42:22;8.20;99.90
5796;DHT22;2924;51.458;7.046;2022-12-07T10:45:06;8.10;99.90
5796;DHT22;2924;51.458;7.046;2022-12-07T10:47:46;8.00;99.90
5796;DHT22;2924;51.458;7.046;2022-12-07T11:01:17;7.70;99.90
5796;DHT22;2924;51.458;7.046;2022-12-07T11:06:33;7.40;99.90
5796;DHT22;2924;51.458;7.046;2022-12-07T11:14:44;7.50;99.90
5796;DHT22;2924;51.458;7.046;2022-12-07T11:17:23;7.60;99.90
5796;DHT22;2924;51.458;7.046;2022-12-07T11:23:13;7.30;99.90
5796;DHT22;2924;51.458;7.046;2022-12-07T11:26:06;7.10;99.90
5796;DHT22;2924;51.458;7.046;2022-12-07T11:33:56;6.80;99.90
5796;DHT22;2924;51.458;7.046;2022-12-07T11:36:43;6.60;99.90
5796;DHT22;2924;51.458;7.046;2022-12-07T11:39:26;6.50;99.90
5796;DHT22;2924;51.458;7.046;2022-12-07T11:42:10;6.40;99.90
5796;DHT22;2924;51.458;7.046;2022-12-07T11:50:54;6.30;99.90
5796;DHT22;2924;51.458;7.046;2022-12-07T11:53:37;6.40;99.90
5796;DHT22;2924;51.458;7.046;2022-12-07T11:56:15;6.50;99.90
5796;DHT22;2924;51.458;7.046;2022-12-07T11:58:49;6.80;99.90
5796;DHT22;2924;51.458;7.046;2022-12-07T12:04:27;7.00;99.90
5796;DHT22;2924;51.458;7.046;2022-12-07T12:06:54;7.00;99.90
5796;DHT22;2924;51.458;7.046;2022-12-07T12:09:31;7.00;99.90
5796;DHT22;2924;51.458;7.046;2022-12-07T12:12:46;7.00;99.90
5796;DHT22;2924;51.458;7.046;2022-12-07T12:18:51;6.90;99.90
5796;DHT22;2924;51.458;7.046;2022-12-07T12:21:27;6.80;99.90
5796;DHT22;2924;51.458;7.046;2022-12-07T12:26:33;6.60;99.90
5796;DHT22;2924;51.458;7.046;2022-12-07T12:29:03;6.60;99.90
5796;DHT22;2924;51.458;7.046;2022-12-07T12:31:36;6.60;99.90
5796;DHT22;2924;51.458;7.046;2022-12-07T12:34:41;6.70;99.90
5796;DHT22;2924;51.458;7.046;2022-12-07T12:42:51;6.60;99.90
5796;DHT22;2924;51.458;7.046;2022-12-07T12:53:02;6.40;99.90
5796;DHT22;2924;51.458;7.046;2022-12-07T12:58:36;6.40;99.90
5796;DHT22;2924;51.458;7.046;2022-12-07T13:03:54;6.50;99.90
5796;DHT22;2924;51.458;7.046;2022-12-07T13:08:58;6.60;99.90
5796;DHT22;2924;51.458;7.046;2022-12-07T13:11:42;6.50;99.90
5796;DHT22;2924;51.458;7.046;2022-12-07T13:14:51;6.50;99.90
5796;DHT22;2924;51.458;7.046;2022-12-07T13:19:59;6.40;99.90
5796;DHT22;2924;51.458;7.046;2022-12-07T13:25:17;6.30;99.90
5796;DHT22;2924;51.458;7.046;2022-12-07T13:27:55;6.20;99.90
5796;DHT22;2924;51.458;7.046;2022-12-07T13:30:22;6.20;99.90
5796;DHT22;2924;51.458;7.046;2022-12-07T13:32:57;6.10;99.90
5796;DHT22;2924;51.458;7.046;2022-12-07T13:35:36;6.10;99.90
5796;DHT22;2924;51.458;7.046;2022-12-07T13:38:15;6.20;99.90
5796;DHT22;2924;51.458;7.046;2022-12-07T13:40:42;6.20;99.90
5796;DHT22;2924;51.458;7.046;2022-12-07T13:43:15;6.10;99.90
5796;DHT22;2924;51.458;7.046;2022-12-07T13:45:42;6.10;99.90
5796;DHT22;2924;51.458;7.046;2022-12-07T13:48:36;6.10;99.90
5796;DHT22;2924;51.458;7.046;2022-12-07T13:51:25;6.00;99.90
5796;DHT22;2924;51.458;7.046;2022-12-07T13:54:00;6.00;99.90
5796;DHT22;2924;51.458;7.046;2022-12-07T13:56:32;5.90;99.90
5796;DHT22;2924;51.458;7.046;2022-12-07T13:58:58;6.00;99.90
5796;DHT22;2924;51.458;7.046;2022-12-07T14:01:25;6.00;99.90
5796;DHT22;2924;51.458;7.046;2022-12-07T14:03:51;6.00;99.90
5796;DHT22;2924;51.458;7.046;2022-12-07T14:06:22;6.00;99.90
5796;DHT22;2924;51.458;7.046;2022-12-07T14:08:50;6.00;99.90
5796;DHT22;2924;51.458;7.046;2022-12-07T14:11:30;6.00;99.90
5796;DHT22;2924;51.458;7.046;2022-12-07T14:13:59;5.90;99.90
5796;DHT22;2924;51.458;7.046;2022-12-07T14:18:53;5.80;99.90
5796;DHT22;2924;51.458;7.046;2022-12-07T14:21:22;5.80;99.90
5796;DHT22;2924;51.458;7.046;2022-12-07T14:24:11;5.70;99.90
5796;DHT22;2924;51.458;7.046;2022-12-07T14:26:39;5.50;99.90
5796;DHT22;2924;51.458;7.046;2022-12-07T14:31:49;5.40;99.90
5796;DHT22;2924;51.458;7.046;2022-12-07T14:34:15;5.40;99.90
5796;DHT22;2924;51.458;7.046;2022-12-07T14:36:41;5.40;99.90
5796;DHT22;2924;51.458;7.046;2022-12-07T14:39:07;5.40;99.90
5796;DHT22;2924;51.458;7.046;2022-12-07T14:41:32;5.30;99.90
5796;DHT22;2924;51.458;7.046;2022-12-07T14:44:21;5.10;99.90
5796;DHT22;2924;51.458;7.046;2022-12-07T14:46:48;5.00;99.90
5796;DHT22;2924;51.458;7.046;2022-12-07T14:49:14;4.80;99.90
5796;DHT22;2924;51.458;7.046;2022-12-07T14:51:40;4.60;99.90
5796;DHT22;2924;51.458;7.046;2022-12-07T14:54:17;4.50;99.90
5796;DHT22;2924;51.458;7.046;2022-12-07T14:56:43;4.30;99.90
5796;DHT22;2924;51.458;7.046;2022-12-07T14:59:10;4.20;99.90
5796;DHT22;2924;51.458;7.046;2022-12-07T15:01:36;4.00;99.90
5796;DHT22;2924;51.458;7.046;2022-12-07T15:04:02;4.00;99.90
5796;DHT22;2924;51.458;7.046;2022-12-07T15:06:28;3.90;99.90
5796;DHT22;2924;51.458;7.046;2022-12-07T15:08:53;3.80;99.90
5796;DHT22;2924;51.458;7.046;2022-12-07T15:11:20;3.60;99.90
5796;DHT22;2924;51.458;7.046;2022-12-07T15:13:46;3.50;99.90
5796;DHT22;2924;51.458;7.046;2022-12-07T15:16:30;3.40;99.90
5796;DHT22;2924;51.458;7.046;2022-12-07T15:18:56;3.40;99.90
5796;DHT22;2924;51.458;7.046;2022-12-07T15:21:22;3.40;99.90
5796;DHT22;2924;51.458;7.046;2022-12-07T15:23:47;3.40;99.90
5796;DHT22;2924;51.458;7.046;2022-12-07T15:26:13;3.30;99.90
5796;DHT22;2924;51.458;7.046;2022-12-07T15:28:40;3.30;99.90
5796;DHT22;2924;51.458;7.046;2022-12-07T15:31:12;3.30;99.90
5796;DHT22;2924;51.458;7.046;2022-12-07T15:33:38;3.30;99.90
5796;DHT22;2924;51.458;7.046;2022-12-07T15:36:04;3.20;99.90
5796;DHT22;2924;51.458;7.046;2022-12-07T15:38:30;3.20;99.90
5796;DHT22;2924;51.458;7.046;2022-12-07T15:40:56;3.20;99.90
5796;DHT22;2924;51.458;7.046;2022-12-07T15:43:22;3.20;99.90
5796;DHT22;2924;51.458;7.046;2022-12-07T15:46:06;3.20;99.90
5796;DHT22;2924;51.458;7.046;2022-12-07T15:48:32;3.30;99.90
5796;DHT22;2924;51.458;7.046;2022-12-07T15:51:06;3.30;99.90
5796;DHT22;2924;51.458;7.046;2022-12-07T15:53:32;3.40;99.90
5796;DHT22;2924;51.458;7.046;2022-12-07T15:55:58;3.40;99.90
5796;DHT22;2924;51.458;7.046;2022-12-07T15:58:24;3.40;99.90
5796;DHT22;2924;51.458;7.046;2022-12-07T16:00:50;3.50;99.90
5796;DHT22;2924;51.458;7.046;2022-12-07T16:03:16;3.40;99.90
5796;DHT22;2924;51.458;7.046;2022-12-07T16:05:41;3.50;99.90
5796;DHT22;2924;51.458;7.046;2022-12-07T16:08:07;3.50;99.90
5796;DHT22;2924;51.458;7.046;2022-12-07T16:10:33;3.50;99.90
5796;DHT22;2924;51.458;7.046;2022-12-07T16:12:59;3.50;99.90
5796;DHT22;2924;51.458;7.046;2022-12-07T16:15:25;3.60;99.90
5796;DHT22;2924;51.458;7.046;2022-12-07T16:17:52;3.60;99.90
5796;DHT22;2924;51.458;7.046;2022-12-07T16:20:19;3.60;99.90
5796;DHT22;2924;51.458;7.046;2022-12-07T16:22:44;3.70;99.90
5796;DHT22;2924;51.458;7.046;2022-12-07T16:25:10;3.70;99.90
5796;DHT22;2924;51.458;7.046;2022-12-07T16:27:36;3.70;99.90
5796;DHT22;2924;51.458;7.046;2022-12-07T16:30:01;3.80;99.90
5796;DHT22;2924;51.458;7.046;2022-12-07T16:32:27;3.80;99.90
5796;DHT22;2924;51.458;7.046;2022-12-07T16:34:53;3.80;99.90
5796;DHT22;2924;51.458;7.046;2022-12-07T16:37:18;3.80;99.90
5796;DHT22;2924;51.458;7.046;2022-12-07T16:39:44;3.80;99.90
5796;DHT22;2924;51.458;7.046;2022-12-07T16:42:09;3.80;99.90
5796;DHT22;2924;51.458;7.046;2022-12-07T16:44:35;3.80;99.90
5796;DHT22;2924;51.458;7.046;2022-12-07T16:47:01;3.80;99.90
5796;DHT22;2924;51.458;7.046;2022-12-07T16:49:26;3.90;99.90
5796;DHT22;2924;51.458;7.046;2022-12-07T16:51:52;3.90;99.90
5796;DHT22;2924;51.458;7.046;2022-12-07T16:54:18;3.90;99.90
5796;DHT22;2924;51.458;7.046;2022-12-07T16:56:43;3.90;99.90
5796;DHT22;2924;51.458;7.046;2022-12-07T16:59:09;3.90;99.90
5796;DHT22;2924;51.458;7.046;2022-12-07T17:01:34;3.90;99.90
5796;DHT22;2924;51.458;7.046;2022-12-07T17:04:01;4.00;99.90
5796;DHT22;2924;51.458;7.046;2022-12-07T17:06:28;4.00;99.90
5796;DHT22;2924;51.458;7.046;2022-12-07T17:08:56;4.10;99.90
5796;DHT22;2924;51.458;7.046;2022-12-07T17:11:28;4.10;99.90
5796;DHT22;2924;51.458;7.046;2022-12-07T17:13:54;4.10;99.90
5796;DHT22;2924;51.458;7.046;2022-12-07T17:16:39;4.10;99.90
5796;DHT22;2924;51.458;7.046;2022-12-07T17:19:09;4.10;99.90
5796;DHT22;2924;51.458;7.046;2022-12-07T17:21:36;4.00;99.90
5796;DHT22;2924;51.458;7.046;2022-12-07T17:24:03;4.10;99.90
5796;DHT22;2924;51.458;7.046;2022-12-07T17:26:30;4.10;99.90
5796;DHT22;2924;51.458;7.046;2022-12-07T17:28:56;4.10;99.90
5796;DHT22;2924;51.458;7.046;2022-12-07T17:31:24;4.10;99.90
5796;DHT22;2924;51.458;7.046;2022-12-07T17:33:50;4.10;99.90
5796;DHT22;2924;51.458;7.046;2022-12-07T17:36:27;4.10;99.90
5796;DHT22;2924;51.458;7.046;2022-12-07T17:38:53;4.00;99.90
5796;DHT22;2924;51.458;7.046;2022-12-07T17:41:27;4.10;99.90
5796;DHT22;2924;51.458;7.046;2022-12-07T17:44:17;4.10;99.90
5796;DHT22;2924;51.458;7.046;2022-12-07T17:46:45;4.00;99.90
5796;DHT22;2924;51.458;7.046;2022-12-07T17:49:10;3.90;99.90
5796;DHT22;2924;51.458;7.046;2022-12-07T17:51:36;3.90;99.90
5796;DHT22;2924;51.458;7.046;2022-12-07T17:54:21;3.80;99.90
5796;DHT22;2924;51.458;7.046;2022-12-07T17:56:46;3.80;99.90
5796;DHT22;2924;51.458;7.046;2022-12-07T17:59:12;3.80;99.90
5796;DHT22;2924;51.458;7.046;2022-12-07T18:01:38;3.80;99.90
5796;DHT22;2924;51.458;7.046;2022-12-07T18:04:04;3.80;99.90
5796;DHT22;2924;51.458;7.046;2022-12-07T18:06:30;3.70;99.90
5796;DHT22;2924;51.458;7.046;2022-12-07T18:08:57;3.70;99.90
5796;DHT22;2924;51.458;7.046;2022-12-07T18:11:23;3.60;99.90
5796;DHT22;2924;51.458;7.046;2022-12-07T18:13:49;3.70;99.90
5796;DHT22;2924;51.458;7.046;2022-12-07T18:16:17;3.60;99.90
5796;DHT22;2924;51.458;7.046;2022-12-07T18:18:44;3.60;99.90
5796;DHT22;2924;51.458;7.046;2022-12-07T18:21:16;3.60;99.90
5796;DHT22;2924;51.458;7.046;2022-12-07T18:23:44;3.60;99.90
5796;DHT22;2924;51.458;7.046;2022-12-07T18:26:11;3.50;99.90
5796;DHT22;2924;51.458;7.046;2022-12-07T18:28:38;3.60;99.90